createdAt,value
2018-08-04T00:00:49.796Z,2.20
2018-08-04T00:03:18.899Z,1.97
2018-08-04T00:05:48.015Z,2.20
2018-08-04T00:08:17.080Z,2.00
2018-08-04T00:10:46.195Z,1.83
2018-08-04T00:13:15.255Z,2.60
2018-08-04T00:15:44.349Z,2.00
2018-08-04T00:18:13.412Z,1.90
2018-08-04T00:20:42.504Z,1.80
2018-08-04T00:23:11.572Z,2.00
2018-08-04T00:25:40.657Z,1.73
2018-08-04T00:28:09.723Z,1.93
2018-08-04T00:30:38.803Z,1.57
2018-08-04T00:33:07.868Z,1.90
2018-08-04T00:35:36.964Z,1.77
2018-08-04T00:38:06.034Z,1.97
2018-08-04T00:40:35.148Z,1.70
2018-08-04T00:43:04.271Z,1.47
2018-08-04T00:45:33.383Z,2.00
2018-08-04T00:48:02.457Z,1.90
2018-08-04T00:50:31.544Z,1.90
2018-08-04T00:53:00.629Z,2.43
2018-08-04T00:55:29.756Z,1.57
2018-08-04T00:57:58.806Z,2.37
2018-08-04T01:00:27.899Z,1.70
2018-08-04T01:02:56.986Z,2.30
2018-08-04T01:05:26.084Z,1.77
2018-08-04T01:07:55.175Z,2.10
2018-08-04T01:10:24.256Z,1.97
2018-08-04T01:12:53.324Z,2.00
2018-08-04T01:15:22.418Z,1.97
2018-08-04T01:17:51.484Z,2.10
2018-08-04T01:20:20.595Z,2.00
2018-08-04T01:22:49.677Z,2.77
2018-08-04T01:25:18.776Z,2.10
2018-08-04T01:27:47.841Z,2.00
2018-08-04T01:30:16.960Z,1.90
2018-08-04T01:32:46.032Z,2.03
2018-08-04T01:35:15.130Z,1.90
2018-08-04T01:37:44.240Z,2.00
2018-08-04T01:40:13.344Z,2.50
2018-08-04T01:42:42.440Z,2.20
2018-08-04T01:45:11.509Z,2.40
2018-08-04T01:47:40.600Z,2.03
2018-08-04T01:50:09.677Z,2.27
2018-08-04T01:52:38.758Z,2.17
2018-08-04T01:55:07.835Z,2.10
2018-08-04T01:57:36.936Z,1.90
2018-08-04T02:00:05.992Z,2.03
2018-08-04T02:02:35.095Z,2.03
2018-08-04T02:05:04.180Z,2.10
2018-08-04T02:07:33.260Z,2.17
2018-08-04T02:10:02.324Z,2.13
2018-08-04T02:12:31.410Z,2.37
2018-08-04T02:15:00.488Z,2.10
2018-08-04T02:17:29.583Z,3.00
2018-08-04T02:19:58.660Z,2.17
2018-08-04T02:22:27.744Z,3.00
2018-08-04T02:24:56.840Z,2.40
2018-08-04T02:27:25.943Z,2.10
2018-08-04T02:29:55.014Z,2.13
2018-08-04T02:32:24.101Z,2.93
2018-08-04T02:34:53.183Z,2.20
2018-08-04T02:37:22.324Z,2.20
2018-08-04T02:39:51.518Z,2.20
2018-08-04T02:42:20.616Z,2.27
2018-08-04T02:44:49.744Z,2.07
2018-08-04T02:47:18.824Z,2.50
2018-08-04T02:49:47.884Z,2.40
2018-08-04T02:52:16.972Z,2.53
2018-08-04T02:54:46.046Z,2.80
2018-08-04T02:57:15.140Z,2.30
2018-08-04T02:59:44.224Z,2.27
2018-08-04T03:02:13.301Z,2.17
2018-08-04T03:04:42.356Z,2.70
2018-08-04T03:07:11.458Z,2.50
2018-08-04T03:09:40.512Z,2.17
2018-08-04T03:12:09.592Z,2.70
2018-08-04T03:14:38.656Z,2.67
2018-08-04T03:17:07.732Z,2.80
2018-08-04T03:19:36.788Z,2.53
2018-08-04T03:22:06.160Z,2.47
2018-08-04T03:24:35.235Z,2.20
2018-08-04T03:27:04.319Z,2.77
2018-08-04T03:29:33.383Z,2.03
2018-08-04T03:32:02.510Z,2.20
2018-08-04T03:34:31.591Z,2.50
2018-08-04T03:37:00.668Z,2.53
2018-08-04T03:39:29.728Z,2.83
2018-08-04T03:41:58.833Z,2.73
2018-08-04T03:44:27.913Z,3.23
2018-08-04T03:46:57.000Z,2.40
2018-08-04T03:49:26.075Z,2.40
2018-08-04T03:51:55.188Z,3.20
2018-08-04T03:54:24.245Z,3.20
2018-08-04T03:56:53.347Z,2.33
2018-08-04T03:59:22.432Z,2.73
2018-08-04T04:01:51.528Z,2.43
2018-08-04T04:04:20.591Z,2.57
2018-08-04T04:06:49.681Z,2.93
2018-08-04T04:09:18.751Z,2.50
2018-08-04T04:11:47.827Z,3.17
2018-08-04T04:14:16.880Z,2.83
2018-08-04T04:16:45.968Z,3.20
2018-08-04T04:19:15.024Z,2.30
2018-08-04T04:21:44.120Z,2.53
2018-08-04T04:24:13.241Z,2.33
2018-08-04T04:26:42.322Z,3.00
2018-08-04T04:29:11.404Z,2.17
2018-08-04T04:31:40.471Z,3.20
2018-08-04T04:34:09.557Z,3.00
2018-08-04T04:36:38.620Z,3.20
2018-08-04T04:39:09.309Z,2.67
2018-08-04T04:41:38.887Z,2.50
2018-08-04T04:44:08.515Z,2.60
2018-08-04T04:46:40.758Z,2.60
2018-08-04T04:49:11.103Z,2.50
2018-08-04T04:51:41.204Z,3.10
2018-08-04T04:54:10.524Z,2.77
2018-08-04T04:56:39.595Z,2.27
2018-08-04T04:59:08.668Z,2.90
2018-08-04T05:01:37.723Z,2.80
2018-08-04T05:04:06.943Z,3.00
2018-08-04T05:06:36.015Z,2.83
2018-08-04T05:09:07.464Z,2.90
2018-08-04T05:11:36.525Z,3.10
2018-08-04T05:14:05.639Z,3.30
2018-08-04T05:16:34.745Z,3.13
2018-08-04T05:19:03.833Z,3.12
2018-08-04T05:21:32.937Z,3.17
2018-08-04T05:24:02.012Z,3.80
2018-08-04T05:26:31.073Z,3.75
2018-08-04T05:29:00.668Z,3.92
2018-08-04T05:31:29.824Z,3.47
2018-08-04T05:33:58.897Z,3.30
2018-08-04T05:36:27.973Z,3.50
2018-08-04T05:38:57.336Z,4.22
2018-08-04T05:41:27.399Z,3.60
2018-08-04T05:43:57.450Z,4.12
2018-08-04T05:46:26.547Z,3.77
2018-08-04T05:48:56.831Z,3.80
2018-08-04T05:51:25.912Z,4.00
2018-08-04T05:53:54.995Z,4.40
2018-08-04T05:56:24.411Z,4.37
2018-08-04T05:58:53.933Z,4.25
2018-08-04T06:01:23.004Z,3.72
2018-08-04T06:03:52.183Z,4.22
2018-08-04T06:06:21.301Z,4.30
2018-08-04T06:08:50.377Z,4.80
2018-08-04T06:11:19.468Z,3.40
2018-08-04T06:13:48.552Z,4.45
2018-08-04T06:16:17.623Z,3.70
2018-08-04T06:18:46.722Z,4.43
2018-08-04T06:21:15.804Z,4.37
2018-08-04T06:23:44.896Z,3.63
2018-08-04T06:26:13.979Z,4.12
2018-08-04T06:28:43.100Z,4.27
2018-08-04T06:31:12.176Z,5.00
2018-08-04T06:33:42.179Z,3.93
2018-08-04T06:36:11.236Z,4.90
2018-08-04T06:38:40.327Z,4.70
2018-08-04T06:41:09.401Z,3.60
2018-08-04T06:43:38.528Z,4.43
2018-08-04T06:46:07.665Z,3.90
2018-08-04T06:48:36.875Z,3.67
2018-08-04T06:51:05.956Z,4.30
2018-08-04T06:53:35.044Z,4.40
2018-08-04T06:56:04.108Z,4.67
2018-08-04T06:58:33.198Z,4.83
2018-08-04T07:01:02.403Z,5.37
2018-08-04T07:03:31.507Z,4.30
2018-08-04T07:06:00.581Z,3.87
2018-08-04T07:08:29.664Z,4.23
2018-08-04T07:10:58.740Z,4.13
2018-08-04T07:13:27.848Z,4.00
2018-08-04T07:15:56.928Z,5.12
2018-08-04T07:18:26.044Z,3.90
2018-08-04T07:20:55.135Z,5.53
2018-08-04T07:23:24.247Z,5.25
2018-08-04T07:25:53.324Z,4.17
2018-08-04T07:28:22.392Z,3.50
2018-08-04T07:30:51.507Z,3.75
2018-08-04T07:33:21.055Z,3.95
2018-08-04T07:35:50.199Z,3.30
2018-08-04T07:38:19.264Z,3.02
2018-08-04T07:40:48.403Z,3.60
2018-08-04T07:43:17.497Z,3.73
2018-08-04T07:45:46.607Z,3.40
2018-08-04T07:48:15.684Z,3.50
2018-08-04T07:50:44.787Z,2.80
2018-08-04T07:53:13.873Z,4.40
2018-08-04T07:55:42.966Z,2.83
2018-08-04T07:58:12.053Z,4.17
2018-08-04T08:00:41.168Z,2.70
2018-08-04T08:03:10.246Z,4.03
2018-08-04T08:05:39.356Z,4.43
2018-08-04T08:08:08.456Z,3.80
2018-08-04T08:10:37.665Z,4.50
2018-08-04T08:13:06.748Z,4.30
2018-08-04T08:15:35.840Z,3.90
2018-08-04T08:18:04.966Z,3.90
2018-08-04T08:20:34.056Z,4.30
2018-08-04T08:23:03.159Z,4.53
2018-08-04T08:25:32.248Z,4.37
2018-08-04T08:28:01.333Z,4.25
2018-08-04T08:30:30.424Z,4.37
2018-08-04T08:32:59.497Z,5.03
2018-08-04T08:35:28.631Z,4.47
2018-08-04T08:37:57.700Z,3.97
2018-08-04T08:40:26.812Z,4.70
2018-08-04T08:42:55.894Z,5.00
2018-08-04T08:45:24.984Z,3.87
2018-08-04T08:47:54.075Z,3.50
2018-08-04T08:50:23.171Z,3.95
2018-08-04T08:52:52.244Z,4.27
2018-08-04T08:55:21.355Z,3.80
2018-08-04T08:57:50.444Z,3.47
2018-08-04T09:00:19.543Z,4.57
2018-08-04T09:02:48.643Z,4.20
2018-08-04T09:05:17.743Z,3.70
2018-08-04T09:07:46.839Z,3.80
2018-08-04T09:10:15.936Z,3.80
2018-08-04T09:12:45.011Z,2.42
2018-08-04T09:15:14.120Z,4.75
2018-08-04T09:17:43.200Z,3.27
2018-08-04T09:20:12.343Z,3.45
2018-08-04T09:22:42.213Z,2.60
2018-08-04T09:25:11.328Z,2.60
2018-08-04T09:27:40.412Z,2.70
2018-08-04T09:30:11.921Z,2.80
2018-08-04T09:32:42.047Z,2.60
2018-08-04T09:35:11.549Z,3.47
2018-08-04T09:37:40.662Z,2.40
2018-08-04T09:40:12.008Z,2.98
2018-08-04T09:42:41.176Z,2.20
2018-08-04T09:45:11.019Z,2.55
2018-08-04T09:47:40.809Z,2.20
2018-08-04T09:50:11.560Z,2.65
2018-08-04T09:52:41.186Z,3.30
2018-08-04T09:55:11.285Z,2.60
2018-08-04T09:57:41.053Z,1.70
2018-08-04T10:00:15.780Z,1.77
2018-08-04T10:02:44.872Z,2.33
2018-08-04T10:05:14.037Z,2.00
2018-08-04T10:07:43.038Z,2.50
2018-08-04T10:10:12.136Z,2.80
2018-08-04T10:12:41.240Z,2.05
2018-08-04T10:15:11.280Z,2.57
2018-08-04T10:17:40.785Z,2.20
2018-08-04T10:20:11.078Z,2.23
2018-08-04T10:22:40.101Z,2.27
2018-08-04T10:25:09.480Z,2.07
2018-08-04T10:27:38.568Z,2.23
2018-08-04T10:30:09.540Z,2.03
2018-08-04T10:32:38.785Z,2.00
2018-08-04T10:35:08.623Z,1.70
2018-08-04T10:37:37.744Z,2.03
2018-08-04T10:40:06.845Z,1.80
2018-08-04T10:42:36.073Z,1.50
2018-08-04T10:45:06.289Z,1.27
2018-08-04T10:47:35.393Z,1.30
2018-08-04T10:50:05.112Z,1.92
2018-08-04T10:52:34.224Z,1.90
2018-08-04T10:55:03.301Z,1.85
2018-08-04T10:57:32.416Z,2.20
2018-08-04T11:00:01.477Z,2.20
2018-08-04T11:02:30.732Z,2.77
2018-08-04T11:04:59.812Z,1.97
2018-08-04T11:07:28.897Z,2.37
2018-08-04T11:09:57.984Z,2.20
2018-08-04T11:12:27.136Z,2.40
2018-08-04T11:14:56.193Z,1.92
2018-08-04T11:17:25.276Z,2.23
2018-08-04T11:19:54.372Z,1.93
2018-08-04T11:22:23.511Z,2.00
2018-08-04T11:24:52.612Z,2.08
2018-08-04T11:27:21.733Z,2.13
2018-08-04T11:29:50.810Z,2.00
2018-08-04T11:32:19.905Z,1.98
2018-08-04T11:34:48.984Z,1.87
2018-08-04T11:37:18.115Z,1.60
2018-08-04T11:39:47.199Z,1.90
2018-08-04T11:42:16.313Z,2.20
2018-08-04T11:44:45.373Z,2.50
2018-08-04T11:47:14.456Z,2.03
2018-08-04T11:49:43.521Z,2.20
2018-08-04T11:52:12.635Z,1.95
2018-08-04T11:54:41.707Z,2.10
2018-08-04T11:57:10.793Z,2.10
2018-08-04T11:59:39.891Z,1.80
2018-08-04T12:02:08.994Z,1.90
2018-08-04T12:04:38.089Z,1.87
2018-08-04T12:07:07.191Z,1.73
2018-08-04T12:09:36.300Z,2.20
2018-08-04T12:12:05.395Z,1.67
2018-08-04T12:14:34.499Z,1.83
2018-08-04T12:17:03.580Z,1.97
2018-08-04T12:19:32.652Z,1.40
2018-08-04T12:22:01.764Z,1.90
2018-08-04T12:24:30.844Z,2.08
2018-08-04T12:26:59.928Z,1.53
2018-08-04T12:29:29.010Z,1.60
2018-08-04T12:31:58.135Z,2.05
2018-08-04T12:34:27.277Z,1.70
2018-08-04T12:36:56.364Z,1.60
2018-08-04T12:39:25.438Z,1.77
2018-08-04T12:41:54.516Z,1.57
2018-08-04T12:44:23.608Z,1.97
2018-08-04T12:46:52.731Z,1.82
2018-08-04T12:49:21.808Z,1.57
2018-08-04T12:51:50.910Z,2.17
2018-08-04T12:54:20.029Z,1.83
2018-08-04T12:56:49.311Z,1.80
2018-08-04T12:59:18.380Z,1.50
2018-08-04T13:01:47.510Z,1.60
2018-08-04T13:04:16.568Z,1.73
2018-08-04T13:06:45.641Z,1.83
2018-08-04T13:09:14.736Z,1.72
2018-08-04T13:11:43.801Z,1.87
2018-08-04T13:14:12.900Z,1.90
2018-08-04T13:16:41.960Z,2.10
2018-08-04T13:19:11.071Z,2.10
2018-08-04T13:21:40.324Z,1.80
2018-08-04T13:24:09.423Z,2.00
2018-08-04T13:26:38.497Z,1.63
2018-08-04T13:29:07.636Z,1.50
2018-08-04T13:31:36.812Z,1.72
2018-08-04T13:34:05.896Z,2.00
2018-08-04T13:36:34.981Z,2.25
2018-08-04T13:39:06.048Z,1.50
2018-08-04T13:41:35.104Z,2.02
2018-08-04T13:44:04.220Z,1.70
2018-08-04T13:46:33.306Z,1.65
2018-08-04T13:49:02.561Z,1.70
2018-08-04T13:51:32.207Z,1.70
2018-08-04T13:54:01.294Z,1.60
2018-08-04T13:56:30.391Z,1.67
2018-08-04T13:58:59.512Z,1.85
2018-08-04T14:01:28.584Z,1.47
2018-08-04T14:03:57.691Z,1.50
2018-08-04T14:06:26.782Z,1.87
2018-08-04T14:08:55.869Z,1.50
2018-08-04T14:11:24.996Z,1.77
2018-08-04T14:13:54.086Z,1.45
2018-08-04T14:16:23.224Z,1.43
2018-08-04T14:18:52.344Z,1.70
2018-08-04T14:21:21.425Z,1.40
2018-08-04T14:23:50.567Z,1.43
2018-08-04T14:26:19.655Z,1.80
2018-08-04T14:28:48.790Z,1.65
2018-08-04T14:31:17.863Z,1.27
2018-08-04T14:33:46.948Z,1.60
2018-08-04T14:36:16.523Z,1.50
2018-08-04T14:38:45.607Z,1.93
2018-08-04T14:41:14.687Z,1.30
2018-08-04T14:43:43.797Z,2.03
2018-08-04T14:46:12.883Z,1.60
2018-08-04T14:48:41.971Z,1.57
2018-08-04T14:51:11.032Z,1.40
2018-08-04T14:53:40.121Z,1.62
2018-08-04T14:56:09.227Z,1.40
2018-08-04T14:58:39.264Z,2.30
2018-08-04T15:01:09.323Z,1.40
2018-08-04T15:03:38.431Z,1.53
2018-08-04T15:06:07.504Z,2.35
2018-08-04T15:08:36.592Z,1.67
2018-08-04T15:11:05.840Z,1.20
2018-08-04T15:13:34.957Z,1.80
2018-08-04T15:16:04.027Z,1.30
2018-08-04T15:18:33.380Z,1.77
2018-08-04T15:21:02.449Z,1.57
2018-08-04T15:23:31.568Z,1.60
2018-08-04T15:26:00.659Z,1.33
2018-08-04T15:28:29.752Z,1.55
2018-08-04T15:30:58.828Z,1.50
2018-08-04T15:33:27.931Z,1.60
2018-08-04T15:35:57.008Z,1.30
2018-08-04T15:38:26.108Z,1.62
2018-08-04T15:40:55.180Z,1.73
2018-08-04T15:43:24.320Z,1.80
2018-08-04T15:45:53.414Z,1.80
2018-08-04T15:48:22.543Z,1.30
2018-08-04T15:50:51.628Z,1.40
2018-08-04T15:53:20.711Z,1.53
2018-08-04T15:55:49.808Z,1.75
2018-08-04T15:58:18.873Z,1.47
2018-08-04T16:00:47.977Z,1.62
2018-08-04T16:03:17.048Z,2.25
2018-08-04T16:05:46.141Z,2.13
2018-08-04T16:08:15.212Z,2.17
2018-08-04T16:10:44.356Z,1.70
2018-08-04T16:13:13.412Z,1.97
2018-08-04T16:15:42.510Z,1.60
2018-08-04T16:18:11.768Z,1.90
2018-08-04T16:20:40.891Z,1.50
2018-08-04T16:23:10.049Z,1.87
2018-08-04T16:25:39.196Z,1.43
2018-08-04T16:28:08.276Z,1.50
2018-08-04T16:30:37.403Z,1.63
2018-08-04T16:33:06.477Z,1.12
2018-08-04T16:35:35.587Z,1.60
2018-08-04T16:38:04.681Z,1.67
2018-08-04T16:40:33.832Z,2.07
2018-08-04T16:43:02.939Z,1.60
2018-08-04T16:45:32.063Z,1.60
2018-08-04T16:48:01.124Z,2.00
2018-08-04T16:50:30.327Z,1.90
2018-08-04T16:52:59.389Z,1.40
2018-08-04T16:55:28.768Z,1.63
2018-08-04T16:57:58.188Z,1.83
2018-08-04T17:00:27.412Z,2.00
2018-08-04T17:02:56.516Z,1.63
2018-08-04T17:05:25.612Z,1.77
2018-08-04T17:07:54.684Z,1.57
2018-08-04T17:10:23.756Z,2.10
2018-08-04T17:12:52.886Z,2.08
2018-08-04T17:15:21.972Z,1.53
2018-08-04T17:17:51.056Z,1.80
2018-08-04T17:20:21.015Z,1.90
2018-08-04T17:22:50.084Z,2.00
2018-08-04T17:25:19.267Z,1.90
2018-08-04T17:27:48.328Z,1.67
2018-08-04T17:30:17.420Z,2.00
2018-08-04T17:32:46.486Z,2.03
2018-08-04T17:35:15.591Z,2.10
2018-08-04T17:37:44.712Z,2.57
2018-08-04T17:40:13.756Z,2.15
2018-08-04T17:42:42.855Z,1.87
2018-08-04T17:45:12.909Z,2.10
2018-08-04T17:47:42.017Z,2.10
2018-08-04T17:50:11.100Z,2.03
2018-08-04T17:52:40.164Z,2.20
2018-08-04T17:55:09.283Z,2.80
2018-08-04T17:57:38.376Z,2.30
2018-08-04T18:00:07.473Z,2.67
2018-08-04T18:02:36.550Z,2.12
2018-08-04T18:05:05.809Z,2.37
2018-08-04T18:07:34.883Z,2.03
2018-08-04T18:10:04.056Z,2.37
2018-08-04T18:12:33.120Z,2.07
2018-08-04T18:15:02.220Z,2.70
2018-08-04T18:17:31.286Z,2.00
2018-08-04T18:20:00.405Z,2.30
2018-08-04T18:22:29.483Z,1.80
2018-08-04T18:24:58.584Z,2.35
2018-08-04T18:27:28.852Z,2.30
2018-08-04T18:29:58.033Z,2.67
2018-08-04T18:32:27.068Z,2.40
2018-08-04T18:34:56.324Z,2.40
2018-08-04T18:37:25.404Z,2.33
2018-08-04T18:39:54.537Z,1.73
2018-08-04T18:42:23.639Z,2.13
2018-08-04T18:44:52.724Z,2.30
2018-08-04T18:47:22.200Z,2.20
2018-08-04T18:49:51.540Z,2.17
2018-08-04T18:52:20.640Z,2.25
2018-08-04T18:54:49.699Z,2.08
2018-08-04T18:57:18.791Z,2.43
2018-08-04T18:59:48.161Z,1.72
2018-08-04T19:02:17.279Z,2.33
2018-08-04T19:04:46.367Z,2.13
2018-08-04T19:07:15.472Z,2.30
2018-08-04T19:09:44.580Z,2.25
2018-08-04T19:12:13.922Z,2.80
2018-08-04T19:14:43.112Z,2.37
2018-08-04T19:17:12.220Z,2.30
2018-08-04T19:19:41.285Z,2.27
2018-08-04T19:22:10.503Z,1.90
2018-08-04T19:24:40.278Z,2.00
2018-08-04T19:27:09.367Z,2.20
2018-08-04T19:29:38.440Z,2.77
2018-08-04T19:32:07.537Z,2.13
2018-08-04T19:34:36.619Z,1.80
2018-08-04T19:37:05.751Z,2.37
2018-08-04T19:39:34.820Z,1.87
2018-08-04T19:42:03.978Z,2.10
2018-08-04T19:44:33.160Z,2.37
2018-08-04T19:47:02.247Z,2.43
2018-08-04T19:49:31.316Z,2.23
2018-08-04T19:52:00.444Z,2.20
2018-08-04T19:54:29.529Z,2.57
2018-08-04T19:56:58.600Z,2.10
2018-08-04T19:59:27.684Z,2.12
2018-08-04T20:01:56.768Z,1.75
2018-08-04T20:04:25.850Z,2.23
2018-08-04T20:06:54.962Z,1.70
2018-08-04T20:09:24.035Z,2.10
2018-08-04T20:11:53.134Z,2.10
2018-08-04T20:14:22.192Z,2.33
2018-08-04T20:16:51.293Z,2.20
2018-08-04T20:19:20.356Z,2.20
2018-08-04T20:21:49.449Z,2.37
2018-08-04T20:24:18.541Z,1.80
2018-08-04T20:26:47.632Z,1.93
2018-08-04T20:29:16.730Z,1.70
2018-08-04T20:31:45.831Z,1.80
2018-08-04T20:34:14.900Z,1.95
2018-08-04T20:36:44.732Z,1.93
2018-08-04T20:39:13.801Z,2.13
2018-08-04T20:41:42.934Z,1.93
2018-08-04T20:44:12.009Z,1.70
2018-08-04T20:46:41.122Z,2.10
2018-08-04T20:49:10.245Z,2.00
2018-08-04T20:51:39.331Z,1.40
2018-08-04T20:54:08.433Z,2.27
2018-08-04T20:56:37.520Z,2.20
2018-08-04T20:59:06.607Z,2.00
2018-08-04T21:01:47.191Z,2.40
2018-08-04T21:04:16.256Z,2.00
2018-08-04T21:06:45.357Z,2.10
2018-08-04T21:09:14.704Z,2.20
2018-08-04T21:11:47.637Z,2.00
2018-08-04T21:14:16.641Z,2.07
2018-08-04T21:16:45.742Z,1.60
2018-08-04T21:19:14.814Z,2.00
2018-08-04T21:21:44.000Z,2.87
2018-08-04T21:24:13.063Z,2.00
2018-08-04T21:26:42.200Z,1.90
2018-08-04T21:29:11.252Z,1.62
2018-08-04T21:31:40.337Z,2.07
2018-08-04T21:34:09.999Z,1.87
2018-08-04T21:36:39.116Z,1.93
2018-08-04T21:39:11.664Z,1.83
2018-08-04T21:41:40.944Z,1.60
2018-08-04T21:44:10.128Z,1.90
2018-08-04T21:46:43.532Z,1.83
2018-08-04T21:49:12.960Z,1.70
2018-08-04T21:51:46.229Z,2.20
2018-08-04T21:54:19.917Z,1.32
2018-08-04T21:56:45.548Z,1.42
2018-08-04T21:59:14.633Z,1.83
2018-08-04T22:01:49.200Z,1.87
2018-08-04T22:04:18.272Z,2.35
2018-08-04T22:07:59.153Z,1.85
2018-08-04T22:10:28.384Z,2.07
2018-08-04T22:12:57.877Z,1.97
2018-08-04T22:15:26.985Z,1.77
2018-08-04T22:17:56.141Z,2.20
2018-08-04T22:20:25.919Z,1.70
2018-08-04T22:22:55.008Z,1.90
2018-08-04T22:25:28.307Z,2.10
2018-08-04T22:27:58.037Z,2.17
2018-08-04T22:30:27.317Z,1.67
2018-08-04T22:32:56.400Z,2.07
2018-08-04T22:35:25.476Z,1.93
2018-08-04T22:37:54.564Z,1.40
2018-08-04T22:40:23.635Z,1.80
2018-08-04T22:42:52.739Z,2.00
2018-08-04T22:46:25.468Z,2.30
2018-08-04T22:48:55.097Z,2.17
2018-08-04T22:51:30.516Z,2.13
2018-08-04T22:53:59.601Z,2.00
2018-08-04T22:56:28.672Z,1.97
2018-08-04T22:58:57.751Z,1.60
2018-08-04T23:01:26.833Z,2.40
2018-08-04T23:03:55.948Z,2.07
2018-08-04T23:06:24.992Z,2.20
2018-08-04T23:08:54.089Z,1.93
2018-08-04T23:11:23.151Z,2.07
2018-08-04T23:13:52.252Z,1.93
2018-08-04T23:16:21.323Z,2.20
2018-08-04T23:18:50.448Z,2.20
2018-08-04T23:21:19.532Z,2.33
2018-08-04T23:23:48.628Z,2.30
2018-08-04T23:26:17.700Z,2.20
2018-08-04T23:28:46.796Z,2.73
2018-08-04T23:31:15.872Z,1.93
2018-08-04T23:33:44.962Z,1.93
2018-08-04T23:36:14.036Z,1.87
2018-08-04T23:38:43.136Z,2.53
2018-08-04T23:41:12.208Z,2.80
2018-08-04T23:43:41.315Z,2.30
2018-08-04T23:46:10.383Z,2.70
2018-08-04T23:48:39.474Z,1.93
2018-08-04T23:51:08.556Z,2.27
2018-08-04T23:53:37.655Z,2.10
2018-08-04T23:56:06.718Z,2.60
2018-08-04T23:58:35.821Z,2.70
